UKDDUGTB

Guest
Details From UKDD - Dnipropetrovsk Intl
To UGTB - Tbilisi
Flight Number -
Tags Generated
Created
Modified
Stats Distance 579 nm / 1,072 km
Max Altitude 0 ft / 0 m
Waypoints 4
Social Downloads 4
Likes 0
Share VATSIM

Download

Looking for another format? Having issues loading an existing format? Contact us
Advertisement - Login to hide

Notes

Generated

Route

UKDD KURAD VP UGTB

ID Type Via Altitude Latitude Longitude Leg Dist Tot Dist Heading (true) Name
O UKDD APT - 0 ft / 0 m 48.35722˚ 35.08126˚ - 0 nm - -
KURAD FIX - 0 ft / 0 m 44.91667˚ 40.58333˚ 306 nm 306 nm 130° / 134° -
VP NDB - 0 ft / 0 m 41.71306˚ 44.89550˚ 269 nm 575 nm 134° / 137° TBILISI NDB
O UGTB APT - 0 ft / 0 m 41.67691˚ 44.94389˚ 3 nm 579 nm 135° / 135° -

Altitude Profile

Advertisement - Login to hide

Weather


0- 5 10 15 20 25 30 35+ Temperature / ° C

Clouds and Precipitation
Forecast for 2018-05-24 12:00 UTC. Updated 5 hours ago

Ground ~20,000 ft ~40,000 ft Winds

UKDD

Details ICAO UKDD (DNK)
Name Dnipropetrovsk Intl
Region Ukraine
Timezone Europe/Kiev (UTC+3.0)
Stats Elevation 481 ft / 147 m (AMSL)
Location 48.357222° 35.100556°
Runways 1
Magnetic Variation 7.890° E

METAR

UKDD 241630Z 36003MPS 340V040 9999 FEW/// 24/10 Q1013 R08/090070 NOSIG

Decode

TAF

TAF UKDD 241107Z 2412/2512 01005G10MPS 9999 SCT025CB BKN040 TX29/2412Z TN15/2502Z TEMPO 2412/2421 VRB09G14MPS 2100 -TSRA SCT007 BKN020CB TEMPO 2506/2512 03007G12MPS

Decode

Departure Runways

ID Width Length Bearing (true) Bearing (mag) Surface Threshold Offset Overrun Length
09 144 ft / 44 m 9,359 ft / 2,853 m 89.99° 82.10° Concrete 0 ft / 0 m 0 ft / 0 m
27 144 ft / 44 m 9,359 ft / 2,853 m 270.01° 262.12° Concrete 0 ft / 0 m 0 ft / 0 m

UGTB

Details ICAO UGTB (TBS)
Name TBILISI
Region Georgia
Timezone Asia/Tbilisi (UTC+4.0)
Stats Elevation 1,624 ft / 495 m (AMSL)
Location 41.668582° 44.953644°
Runways 2
Magnetic Variation 6.681° E

METAR

UGTB 241630Z 06009KT 9999 SCT050CB 26/02 Q1014 NOSIG

Decode

TAF

Not found

Destination Runways

ID Width Length Bearing (true) Bearing (mag) Surface Threshold Offset Overrun Length
13L 196 ft / 60 m 8,208 ft / 2,502 m 133.64° 126.96° Asphalt 0 ft / 0 m 0 ft / 0 m
13R 147 ft / 45 m 9,839 ft / 2,999 m 136.65° 129.97° Concrete 0 ft / 0 m 155 ft / 47 m
31L 147 ft / 45 m 9,839 ft / 2,999 m 316.67° 309.99° Concrete 0 ft / 0 m 150 ft / 46 m
31R 196 ft / 60 m 8,208 ft / 2,502 m 313.65° 306.97° Asphalt 0 ft / 0 m 0 ft / 0 m

Approach Navaids

Runway Type Ident Frequency Range Bearing (true) Bearing (mag) Slope Elevation
13R Localiser IVP 110.30 MHz 18 nm / 33 km 136.69° 130.01° - 1,624 ft / 495 m (AMSL)
13R Glidescope IVP 110.30 MHz 10 nm / 19 km 136.66° 129.98° 3.00° 1,657 ft / 505 m (AMSL)
31L Localiser INA 108.90 MHz 18 nm / 33 km 316.65° 309.96° - 1,624 ft / 495 m (AMSL)
31L Glidescope INA 108.90 MHz 10 nm / 19 km 316.66° 309.98° 3.00° 1,624 ft / 495 m (AMSL)

Popular Alternatives